Home > Products > Valid Products > TAF

000
FTUS46 KHNX 212320
TAFMCE
TAF
KMCE 212320Z 2200/2224 31007KT P6SM SKC=



000
FTUS46 KHNX 212320
TAFFAT
TAF
KFAT 212320Z 2200/2224 31006KT P6SM SKC=



000
FTUS46 KHNX 212320
TAFBFL
TAF
KBFL 212320Z 2200/2224 31012KT P6SM SKC
     FM220200 VRB04KT P6SM SKC
     FM222200 30009KT P6SM SKC=



000
FTUS46 KHNX 211733
TAFFAT
TAF
KFAT 211733Z 2118/2218 31009KT P6SM SKC=



000
FTUS46 KHNX 211733
TAFMCE
TAF
KMCE 211733Z 2118/2218 33009KT P6SM SKC=



000
FTUS46 KHNX 211733
TAFBFL
TAF
KBFL 211733Z 2118/2218 31009KT P6SM SKC
     FM220700 VRB04KT P6SM SKC=



000
FTUS46 KHNX 211132
TAFFAT
TAF
KFAT 211132Z 2112/2212 31007KT P6SM BKN150
     FM220000 31008KT P6SM SKC=



000
FTUS46 KHNX 211132
TAFMCE
TAF
KMCE 211132Z 2112/2212 32005KT P6SM SKC
     FM212100 32008KT P6SM SKC=



000
FTUS46 KHNX 211132
TAFBFL
TAF
KBFL 211132Z 2112/2212 00000KT P6SM SKC
     FM212100 31008KT P6SM SKC=



000
FTUS46 KHNX 210521
TAFBFL
TAF
KBFL 210521Z 2106/2206 34006KT P6SM SKC
     FM210800 VRB03KT P6SM SKC
     FM212100 31008KT P6SM SKC
     FM220300 34005KT P6SM SKC=



000
FTUS46 KHNX 210521
TAFFAT
TAF
KFAT 210521Z 2106/2206 31010KT P6SM SCT150
     FM211000 VRB03KT P6SM SKC
     FM220000 31008KT P6SM SKC=



000
FTUS46 KHNX 210521
TAFMCE
TAF
KMCE 210521Z 2106/2206 32007KT P6SM SCT150
     FM211000 VRB03KT P6SM SKC
     FM212100 32008KT P6SM SKC=



000
FTUS46 KHNX 202320
TAFMCE
TAF
KMCE 202320Z 2100/2124 30007KT P6SM SKC=



000
FTUS46 KHNX 202320
TAFFAT
TAF
KFAT 202320Z 2100/2124 30007KT P6SM SKC=



000
FTUS46 KHNX 202320
TAFBFL
TAF
KBFL 202320Z 2100/2124 32010KT P6SM SKC
     FM210700 VRB04KT P6SM SKC
     FM212100 31008KT P6SM SKC=



000
FTUS46 KHNX 201730
TAFMCE
TAF
KMCE 201730Z 2018/2118 30007KT P6SM SKC=



000
FTUS46 KHNX 201730
TAFFAT
TAF
KFAT 201730Z 2018/2118 29007KT P6SM SKC=



000
FTUS46 KHNX 201730
TAFBFL
TAF
KBFL 201730Z 2018/2118 31009KT P6SM SKC
     FM210700 VRB04KT P6SM SKC=



000
FTUS46 KHNX 201123
TAFBFL
TAF
KBFL 201123Z 2012/2112 00000KT 6SM HZ SKC
     FM202000 29006KT 5SM HZ SKC
     FM202200 31010KT P6SM SKC
     FM210300 36005KT P6SM SKC
     FM210600 35004KT 6SM HZ SKC=



000
FTUS46 KHNX 201123
TAFMCE
TAF
KMCE 201123Z 2012/2112 27004KT P6SM SKC
     FM202000 30008KT P6SM SKC
     FM210300 VRB03KT P6SM SKC=



000
FTUS46 KHNX 201123
TAFFAT
TAF
KFAT 201123Z 2012/2112 30007KT P6SM BKN180
     FM202100 30008KT P6SM SKC
     FM210600 31004KT P6SM BKN250=



000
FTUS46 KHNX 200525
TAFBFL
TAF
KBFL 200525Z 2006/2106 01005KT 5SM HZ SKC
     FM201200 13005KT P6SM SKC
     FM202000 29006KT P6SM SKC
     FM210300 36005KT P6SM SKC=



000
FTUS46 KHNX 200525
TAFMCE
TAF
KMCE 200525Z 2006/2106 35007KT P6SM SCT100
     FM200900 VRB03KT P6SM SCT100
     FM202000 30008KT P6SM SKC
     FM210300 VRB03KT P6SM SKC=



000
FTUS46 KHNX 200525
TAFFAT
TAF
KFAT 200525Z 2006/2106 32006KT P6SM SCT100
     FM201000 VRB03KT P6SM SCT100
     FM202100 32008KT P6SM SKC=



000
FTUS46 KHNX 192320
TAFFAT
TAF
KFAT 192320Z 2000/2024 30008KT P6SM SKC
     FM200400 VRB04KT P6SM SKC
     FM202100 32008KT P6SM SKC=



000
FTUS46 KHNX 192320
TAFMCE
TAF
KMCE 192320Z 2000/2024 32007KT P6SM SKC
     FM200400 VRB03KT P6SM SKC
     FM201800 30006KT P6SM SKC=



000
FTUS46 KHNX 192320
TAFBFL
TAF
KBFL 192320Z 2000/2024 31008KT P6SM SKC
     FM200400 VRB04KT P6SM SKC
     FM202000 29006KT P6SM SKC=



000
FTUS46 KHNX 191720
TAFMCE
TAF
KMCE 191720Z 1918/2018 33008KT P6SM SKC
     FM200400 VRB03KT P6SM SKC=



000
FTUS46 KHNX 191720
TAFBFL
TAF
KBFL 191720Z 1918/2018 29007KT P6SM SKC
     FM200400 VRB04KT P6SM SKC=



000
FTUS46 KHNX 191720
TAFFAT
TAF
KFAT 191720Z 1918/2018 30008KT P6SM SKC
     FM200400 VRB04KT P6SM SKC=



000
FTUS46 KHNX 191125
TAFMCE
TAF
KMCE 191125Z 1912/2012 33009KT P6SM SKC
     FM200300 VRB03KT P6SM SKC=



000
FTUS46 KHNX 191125
TAFBFL
TAF
KBFL 191125Z 1912/2012 29010KT P6SM SKC
     FM200300 35006KT P6SM SKC=



000
FTUS46 KHNX 191125
TAFFAT
TAF
KFAT 191125Z 1912/2012 30011KT P6SM SKC
     FM192200 30008KT P6SM SKC=



000
FTUS46 KHNX 190523
TAFBFL
TAF
KBFL 190523Z 1906/2006 33011KT P6SM SKC
     FM190900 35015KT P6SM SKC
     FM191900 29008KT P6SM SKC
     FM200300 35006KT P6SM SKC=



000
FTUS46 KHNX 190523
TAFFAT
TAF
KFAT 190523Z 1906/2006 30012KT P6SM SKC
      TEMPO 1907/1911 30012G18KT
     FM191800 30008KT P6SM SKC=



000
FTUS46 KHNX 190523
TAFMCE
TAF
KMCE 190523Z 1906/2006 33013KT P6SM SKC
      TEMPO 1906/1909 34012G20KT
     FM192000 33008KT P6SM SKC
     FM200300 VRB03KT P6SM SKC=



000
FTUS46 KHNX 190437 AAA
TAFMCE
TAF AMD
KMCE 190437Z 1905/1924 34014KT P6SM SKC
      TEMPO 1905/1909 28015KT
     FM192000 33008KT P6SM SKC=



    US Dept of Commerce
    National Oceanic and Atmospheric Administration
    National Weather Service
    1325 East West Highway
    Silver Spring, MD 20910
    Page Author: NWS Internet Services Team
Disclaimer
Information Quality
Credits
Glossary
Privacy Policy
Freedom of Information Act (FOIA)
About Us
Career Opportunities